sensor_id;sensor_type;location;lat;lon;timestamp;temperature;humidity
21238;DHT22;10777;50.828;3.264;2022-09-04T00:00:10;21.90;99.90
21238;DHT22;10777;50.828;3.264;2022-09-04T00:03:00;21.90;99.90
21238;DHT22;10777;50.828;3.264;2022-09-04T00:11:36;21.80;99.90
21238;DHT22;10777;50.828;3.264;2022-09-04T00:14:13;21.90;99.90
21238;DHT22;10777;50.828;3.264;2022-09-04T00:16:54;21.90;99.90
21238;DHT22;10777;50.828;3.264;2022-09-04T00:19:50;21.90;99.90
21238;DHT22;10777;50.828;3.264;2022-09-04T00:22:57;21.80;99.90
21238;DHT22;10777;50.828;3.264;2022-09-04T00:25:34;21.80;99.90
21238;DHT22;10777;50.828;3.264;2022-09-04T00:28:11;21.70;99.90
21238;DHT22;10777;50.828;3.264;2022-09-04T00:30:46;21.80;99.90
21238;DHT22;10777;50.828;3.264;2022-09-04T00:33:42;21.70;99.90
21238;DHT22;10777;50.828;3.264;2022-09-04T00:36:12;21.80;99.90
21238;DHT22;10777;50.828;3.264;2022-09-04T00:38:45;21.70;99.90
21238;DHT22;10777;50.828;3.264;2022-09-04T00:41:29;21.70;99.90
21238;DHT22;10777;50.828;3.264;2022-09-04T00:50:25;21.70;99.90
21238;DHT22;10777;50.828;3.264;2022-09-04T00:53:17;21.70;99.90
21238;DHT22;10777;50.828;3.264;2022-09-04T00:56:12;21.90;99.90
21238;DHT22;10777;50.828;3.264;2022-09-04T00:58:54;22.30;99.90
21238;DHT22;10777;50.828;3.264;2022-09-04T01:01:24;22.50;99.90
21238;DHT22;10777;50.828;3.264;2022-09-04T01:04:03;22.20;99.90
21238;DHT22;10777;50.828;3.264;2022-09-04T01:06:45;22.00;99.90
21238;DHT22;10777;50.828;3.264;2022-09-04T01:09:54;22.20;99.90
21238;DHT22;10777;50.828;3.264;2022-09-04T01:12:35;22.30;99.90
21238;DHT22;10777;50.828;3.264;2022-09-04T01:15:25;22.30;99.90
21238;DHT22;10777;50.828;3.264;2022-09-04T01:18:07;22.50;99.90
21238;DHT22;10777;50.828;3.264;2022-09-04T01:20:52;22.40;99.90
21238;DHT22;10777;50.828;3.264;2022-09-04T01:23:34;22.40;99.90
21238;DHT22;10777;50.828;3.264;2022-09-04T01:26:32;22.40;99.90
21238;DHT22;10777;50.828;3.264;2022-09-04T01:29:27;22.20;99.90
21238;DHT22;10777;50.828;3.264;2022-09-04T01:32:11;22.20;99.90
21238;DHT22;10777;50.828;3.264;2022-09-04T01:35:07;21.90;99.90
21238;DHT22;10777;50.828;3.264;2022-09-04T01:37:54;21.70;99.90
21238;DHT22;10777;50.828;3.264;2022-09-04T01:40:47;21.70;99.90
21238;DHT22;10777;50.828;3.264;2022-09-04T01:43:17;21.80;99.90
21238;DHT22;10777;50.828;3.264;2022-09-04T01:49:18;21.80;99.90
21238;DHT22;10777;50.828;3.264;2022-09-04T01:51:59;21.80;99.90
21238;DHT22;10777;50.828;3.264;2022-09-04T01:54:58;21.80;99.90
21238;DHT22;10777;50.828;3.264;2022-09-04T01:57:51;21.80;99.90
21238;DHT22;10777;50.828;3.264;2022-09-04T02:00:20;21.60;99.90
21238;DHT22;10777;50.828;3.264;2022-09-04T02:03:02;21.80;99.90
21238;DHT22;10777;50.828;3.264;2022-09-04T02:05:38;21.80;99.90
21238;DHT22;10777;50.828;3.264;2022-09-04T02:08:41;21.60;99.90
21238;DHT22;10777;50.828;3.264;2022-09-04T02:11:22;21.60;99.90
21238;DHT22;10777;50.828;3.264;2022-09-04T02:14:09;21.60;99.90
21238;DHT22;10777;50.828;3.264;2022-09-04T02:17:01;21.30;99.90
21238;DHT22;10777;50.828;3.264;2022-09-04T02:19:54;21.30;99.90
21238;DHT22;10777;50.828;3.264;2022-09-04T02:22:56;21.10;99.90
21238;DHT22;10777;50.828;3.264;2022-09-04T02:25:37;21.10;99.90
21238;DHT22;10777;50.828;3.264;2022-09-04T02:28:21;21.00;99.90
21238;DHT22;10777;50.828;3.264;2022-09-04T02:31:20;21.10;99.90
21238;DHT22;10777;50.828;3.264;2022-09-04T02:36:44;21.20;99.90
21238;DHT22;10777;50.828;3.264;2022-09-04T02:42:22;20.90;99.90
21238;DHT22;10777;50.828;3.264;2022-09-04T02:45:07;21.00;99.90
21238;DHT22;10777;50.828;3.264;2022-09-04T02:47:49;21.10;99.90
21238;DHT22;10777;50.828;3.264;2022-09-04T02:50:34;21.10;99.90
21238;DHT22;10777;50.828;3.264;2022-09-04T02:53:40;21.20;99.90
21238;DHT22;10777;50.828;3.264;2022-09-04T03:02:18;21.00;99.90
21238;DHT22;10777;50.828;3.264;2022-09-04T03:05:12;20.90;99.90
21238;DHT22;10777;50.828;3.264;2022-09-04T03:10:41;21.00;99.90
21238;DHT22;10777;50.828;3.264;2022-09-04T03:13:34;21.10;99.90
21238;DHT22;10777;50.828;3.264;2022-09-04T03:22:02;20.90;99.90
21238;DHT22;10777;50.828;3.264;2022-09-04T03:24:36;21.00;99.90
21238;DHT22;10777;50.828;3.264;2022-09-04T03:27:07;21.10;99.90
21238;DHT22;10777;50.828;3.264;2022-09-04T03:29:51;21.20;99.90
21238;DHT22;10777;50.828;3.264;2022-09-04T03:32:25;21.20;99.90
21238;DHT22;10777;50.828;3.264;2022-09-04T03:35:17;21.20;99.90
21238;DHT22;10777;50.828;3.264;2022-09-04T03:38:17;21.10;99.90
21238;DHT22;10777;50.828;3.264;2022-09-04T03:40:45;21.20;99.90
21238;DHT22;10777;50.828;3.264;2022-09-04T03:43:27;21.40;99.90
21238;DHT22;10777;50.828;3.264;2022-09-04T03:49:17;21.70;99.90
21238;DHT22;10777;50.828;3.264;2022-09-04T03:51:54;21.40;99.90
21238;DHT22;10777;50.828;3.264;2022-09-04T03:54:49;21.40;99.90
21238;DHT22;10777;50.828;3.264;2022-09-04T03:57:48;21.30;99.90
21238;DHT22;10777;50.828;3.264;2022-09-04T04:00:18;21.30;99.90
21238;DHT22;10777;50.828;3.264;2022-09-04T04:03:06;21.20;99.90
21238;DHT22;10777;50.828;3.264;2022-09-04T04:06:04;21.00;99.90
21238;DHT22;10777;50.828;3.264;2022-09-04T04:09:13;20.80;99.90
21238;DHT22;10777;50.828;3.264;2022-09-04T04:12:01;20.40;99.90
21238;DHT22;10777;50.828;3.264;2022-09-04T04:15:04;20.20;99.90
21238;DHT22;10777;50.828;3.264;2022-09-04T04:20:42;20.00;99.90
21238;DHT22;10777;50.828;3.264;2022-09-04T04:23:43;19.90;99.90
21238;DHT22;10777;50.828;3.264;2022-09-04T04:32:36;19.30;99.90
21238;DHT22;10777;50.828;3.264;2022-09-04T04:35:16;19.30;99.90
21238;DHT22;10777;50.828;3.264;2022-09-04T04:40:53;19.50;99.90
21238;DHT22;10777;50.828;3.264;2022-09-04T04:49:38;19.60;99.90
21238;DHT22;10777;50.828;3.264;2022-09-04T04:52:22;19.40;99.90
21238;DHT22;10777;50.828;3.264;2022-09-04T04:55:02;19.40;99.90
21238;DHT22;10777;50.828;3.264;2022-09-04T05:00:31;19.70;99.90
21238;DHT22;10777;50.828;3.264;2022-09-04T05:03:06;19.70;99.90
21238;DHT22;10777;50.828;3.264;2022-09-04T05:05:59;19.70;99.90
21238;DHT22;10777;50.828;3.264;2022-09-04T05:14:53;19.60;99.90
21238;DHT22;10777;50.828;3.264;2022-09-04T05:20:32;19.30;99.90
21238;DHT22;10777;50.828;3.264;2022-09-04T05:23:13;19.40;99.90
21238;DHT22;10777;50.828;3.264;2022-09-04T05:25:51;19.40;99.90
21238;DHT22;10777;50.828;3.264;2022-09-04T05:28:25;19.40;99.90
21238;DHT22;10777;50.828;3.264;2022-09-04T05:31:18;19.40;99.90
21238;DHT22;10777;50.828;3.264;2022-09-04T05:34:01;19.00;99.90
21238;DHT22;10777;50.828;3.264;2022-09-04T05:36:56;19.10;99.90
21238;DHT22;10777;50.828;3.264;2022-09-04T05:39:43;18.20;99.90
21238;DHT22;10777;50.828;3.264;2022-09-04T05:42:40;19.00;99.90
21238;DHT22;10777;50.828;3.264;2022-09-04T05:45:36;18.80;99.90
21238;DHT22;10777;50.828;3.264;2022-09-04T05:51:20;18.70;99.90
21238;DHT22;10777;50.828;3.264;2022-09-04T05:54:08;18.80;99.90
21238;DHT22;10777;50.828;3.264;2022-09-04T06:05:31;18.50;99.90
21238;DHT22;10777;50.828;3.264;2022-09-04T06:14:11;18.90;99.90
21238;DHT22;10777;50.828;3.264;2022-09-04T06:16:57;19.00;99.90
21238;DHT22;10777;50.828;3.264;2022-09-04T06:19:53;19.10;99.90
21238;DHT22;10777;50.828;3.264;2022-09-04T06:25:41;19.40;99.90
21238;DHT22;10777;50.828;3.264;2022-09-04T06:31:33;19.30;99.90
21238;DHT22;10777;50.828;3.264;2022-09-04T06:34:36;19.50;99.90
21238;DHT22;10777;50.828;3.264;2022-09-04T06:40:21;19.30;99.90
21238;DHT22;10777;50.828;3.264;2022-09-04T06:43:03;19.30;99.90
21238;DHT22;10777;50.828;3.264;2022-09-04T06:46:00;19.60;99.90
21238;DHT22;10777;50.828;3.264;2022-09-04T06:48:52;19.30;99.90
21238;DHT22;10777;50.828;3.264;2022-09-04T06:51:35;19.30;99.90
21238;DHT22;10777;50.828;3.264;2022-09-04T06:54:17;19.50;99.90
21238;DHT22;10777;50.828;3.264;2022-09-04T07:00:03;19.60;99.90
21238;DHT22;10777;50.828;3.264;2022-09-04T07:03:09;19.70;99.90
21238;DHT22;10777;50.828;3.264;2022-09-04T07:05:58;19.60;99.90
21238;DHT22;10777;50.828;3.264;2022-09-04T07:08:53;19.80;99.90
21238;DHT22;10777;50.828;3.264;2022-09-04T07:17:28;20.60;99.90
21238;DHT22;10777;50.828;3.264;2022-09-04T07:20:24;20.60;99.90
21238;DHT22;10777;50.828;3.264;2022-09-04T07:26:00;20.60;99.90
21238;DHT22;10777;50.828;3.264;2022-09-04T07:28:38;20.50;99.90
21238;DHT22;10777;50.828;3.264;2022-09-04T07:31:10;20.70;99.90
21238;DHT22;10777;50.828;3.264;2022-09-04T07:33:56;20.80;99.90
21238;DHT22;10777;50.828;3.264;2022-09-04T07:36:37;20.80;99.90
21238;DHT22;10777;50.828;3.264;2022-09-04T07:39:13;20.90;99.90
21238;DHT22;10777;50.828;3.264;2022-09-04T07:41:46;20.90;99.90
21238;DHT22;10777;50.828;3.264;2022-09-04T07:44:45;21.20;99.90
21238;DHT22;10777;50.828;3.264;2022-09-04T07:47:21;21.30;99.90
21238;DHT22;10777;50.828;3.264;2022-09-04T07:53:18;21.40;99.90
21238;DHT22;10777;50.828;3.264;2022-09-04T07:55:51;21.60;99.90
21238;DHT22;10777;50.828;3.264;2022-09-04T08:01:41;21.60;99.90
21238;DHT22;10777;50.828;3.264;2022-09-04T08:10:30;21.70;99.90
21238;DHT22;10777;50.828;3.264;2022-09-04T08:13:34;21.60;99.90
21238;DHT22;10777;50.828;3.264;2022-09-04T08:16:25;21.70;99.90
21238;DHT22;10777;50.828;3.264;2022-09-04T08:19:14;22.00;99.90
21238;DHT22;10777;50.828;3.264;2022-09-04T08:21:46;22.00;99.90
21238;DHT22;10777;50.828;3.264;2022-09-04T08:24:38;21.80;99.90
21238;DHT22;10777;50.828;3.264;2022-09-04T08:27:50;21.90;99.90
21238;DHT22;10777;50.828;3.264;2022-09-04T08:30:18;22.10;99.90
21238;DHT22;10777;50.828;3.264;2022-09-04T08:33:19;22.30;99.90
21238;DHT22;10777;50.828;3.264;2022-09-04T08:35:59;22.30;99.90
21238;DHT22;10777;50.828;3.264;2022-09-04T08:38:46;22.60;99.90
21238;DHT22;10777;50.828;3.264;2022-09-04T08:47:55;22.60;99.90
21238;DHT22;10777;50.828;3.264;2022-09-04T08:50:32;22.70;99.90
21238;DHT22;10777;50.828;3.264;2022-09-04T08:53:20;22.80;99.90
21238;DHT22;10777;50.828;3.264;2022-09-04T08:56:16;22.90;99.90
21238;DHT22;10777;50.828;3.264;2022-09-04T09:02:23;23.00;99.90
21238;DHT22;10777;50.828;3.264;2022-09-04T09:05:08;23.20;99.90
21238;DHT22;10777;50.828;3.264;2022-09-04T09:08:04;23.20;99.90
21238;DHT22;10777;50.828;3.264;2022-09-04T09:16:41;23.50;99.90
21238;DHT22;10777;50.828;3.264;2022-09-04T09:19:14;23.20;99.90
21238;DHT22;10777;50.828;3.264;2022-09-04T09:21:51;23.30;99.90
21238;DHT22;10777;50.828;3.264;2022-09-04T09:40:14;23.90;99.90
21238;DHT22;10777;50.828;3.264;2022-09-04T09:46:15;23.70;99.90
21238;DHT22;10777;50.828;3.264;2022-09-04T09:58:33;24.10;99.90
21238;DHT22;10777;50.828;3.264;2022-09-04T10:10:44;24.50;99.90
21238;DHT22;10777;50.828;3.264;2022-09-04T10:19:31;24.50;99.90
21238;DHT22;10777;50.828;3.264;2022-09-04T10:22:25;24.40;99.90
21238;DHT22;10777;50.828;3.264;2022-09-04T10:25:23;24.50;99.90
21238;DHT22;10777;50.828;3.264;2022-09-04T10:28:14;24.80;99.90
21238;DHT22;10777;50.828;3.264;2022-09-04T10:31:26;24.80;99.90
21238;DHT22;10777;50.828;3.264;2022-09-04T10:37:21;25.10;99.90
21238;DHT22;10777;50.828;3.264;2022-09-04T10:43:28;25.20;99.90
21238;DHT22;10777;50.828;3.264;2022-09-04T10:46:20;25.30;99.90
21238;DHT22;10777;50.828;3.264;2022-09-04T10:52:07;25.30;99.90
21238;DHT22;10777;50.828;3.264;2022-09-04T10:55:05;25.20;99.90
21238;DHT22;10777;50.828;3.264;2022-09-04T10:58:04;25.60;99.90
21238;DHT22;10777;50.828;3.264;2022-09-04T11:00:44;25.90;99.90
21238;DHT22;10777;50.828;3.264;2022-09-04T11:03:45;25.70;99.90
21238;DHT22;10777;50.828;3.264;2022-09-04T11:12:30;25.40;99.90
21238;DHT22;10777;50.828;3.264;2022-09-04T11:15:18;25.50;99.90
21238;DHT22;10777;50.828;3.264;2022-09-04T11:18:15;25.50;99.90
21238;DHT22;10777;50.828;3.264;2022-09-04T11:33:15;26.50;99.90
21238;DHT22;10777;50.828;3.264;2022-09-04T11:39:31;27.10;99.90
21238;DHT22;10777;50.828;3.264;2022-09-04T11:48:24;27.50;99.90
21238;DHT22;10777;50.828;3.264;2022-09-04T11:51:17;27.50;99.90
21238;DHT22;10777;50.828;3.264;2022-09-04T11:54:04;27.70;99.90
21238;DHT22;10777;50.828;3.264;2022-09-04T11:56:55;27.50;99.90
21238;DHT22;10777;50.828;3.264;2022-09-04T12:02:36;27.20;99.90
21238;DHT22;10777;50.828;3.264;2022-09-04T12:17:39;27.40;99.90
21238;DHT22;10777;50.828;3.264;2022-09-04T12:26:16;28.20;99.90
21238;DHT22;10777;50.828;3.264;2022-09-04T12:29:25;28.20;99.90
21238;DHT22;10777;50.828;3.264;2022-09-04T12:32:23;28.30;99.90
21238;DHT22;10777;50.828;3.264;2022-09-04T12:41:15;28.70;99.90
21238;DHT22;10777;50.828;3.264;2022-09-04T12:44:02;28.60;99.90
21238;DHT22;10777;50.828;3.264;2022-09-04T12:46:59;28.90;99.90
21238;DHT22;10777;50.828;3.264;2022-09-04T12:59:12;29.20;99.90
21238;DHT22;10777;50.828;3.264;2022-09-04T13:05:03;30.00;99.90
21238;DHT22;10777;50.828;3.264;2022-09-04T13:07:43;30.90;99.90
21238;DHT22;10777;50.828;3.264;2022-09-04T13:10:26;32.20;99.90
21238;DHT22;10777;50.828;3.264;2022-09-04T13:16:22;34.20;95.90
21238;DHT22;10777;50.828;3.264;2022-09-04T13:19:14;34.20;92.80
21238;DHT22;10777;50.828;3.264;2022-09-04T13:22:11;33.90;90.30
21238;DHT22;10777;50.828;3.264;2022-09-04T13:25:05;33.60;91.30
21238;DHT22;10777;50.828;3.264;2022-09-04T13:27:56;33.10;91.00
21238;DHT22;10777;50.828;3.264;2022-09-04T13:30:28;34.10;90.00
21238;DHT22;10777;50.828;3.264;2022-09-04T13:36:13;35.20;87.20
21238;DHT22;10777;50.828;3.264;2022-09-04T13:39:11;35.70;83.70
21238;DHT22;10777;50.828;3.264;2022-09-04T13:42:04;34.80;80.00
21238;DHT22;10777;50.828;3.264;2022-09-04T13:45:02;33.20;82.10
21238;DHT22;10777;50.828;3.264;2022-09-04T13:47:54;32.90;83.80
21238;DHT22;10777;50.828;3.264;2022-09-04T13:50:49;33.60;83.00
21238;DHT22;10777;50.828;3.264;2022-09-04T13:53:49;35.00;80.40
21238;DHT22;10777;50.828;3.264;2022-09-04T13:56:21;35.90;73.40
21238;DHT22;10777;50.828;3.264;2022-09-04T13:58:54;36.00;71.70
21238;DHT22;10777;50.828;3.264;2022-09-04T14:01:23;36.10;69.20
21238;DHT22;10777;50.828;3.264;2022-09-04T14:03:56;34.80;70.30
21238;DHT22;10777;50.828;3.264;2022-09-04T14:06:26;34.80;70.60
21238;DHT22;10777;50.828;3.264;2022-09-04T14:08:56;34.80;70.80
21238;DHT22;10777;50.828;3.264;2022-09-04T14:11:55;35.30;70.70
21238;DHT22;10777;50.828;3.264;2022-09-04T14:14:39;36.20;68.50
21238;DHT22;10777;50.828;3.264;2022-09-04T14:17:08;36.20;67.90
21238;DHT22;10777;50.828;3.264;2022-09-04T14:20:01;36.70;65.40
21238;DHT22;10777;50.828;3.264;2022-09-04T14:22:40;36.50;66.60
21238;DHT22;10777;50.828;3.264;2022-09-04T14:25:22;35.30;66.00
21238;DHT22;10777;50.828;3.264;2022-09-04T14:28:01;34.00;67.40
21238;DHT22;10777;50.828;3.264;2022-09-04T14:31:01;32.80;69.90
21238;DHT22;10777;50.828;3.264;2022-09-04T14:34:11;31.80;71.70
21238;DHT22;10777;50.828;3.264;2022-09-04T14:37:02;31.00;74.20
21238;DHT22;10777;50.828;3.264;2022-09-04T14:39:51;30.10;77.10
21238;DHT22;10777;50.828;3.264;2022-09-04T14:42:36;29.70;78.60
21238;DHT22;10777;50.828;3.264;2022-09-04T14:45:37;29.20;80.60
21238;DHT22;10777;50.828;3.264;2022-09-04T14:48:07;28.80;82.70
21238;DHT22;10777;50.828;3.264;2022-09-04T14:50:55;28.70;83.20
21238;DHT22;10777;50.828;3.264;2022-09-04T14:53:29;28.60;84.10
21238;DHT22;10777;50.828;3.264;2022-09-04T14:56:15;28.60;85.60
21238;DHT22;10777;50.828;3.264;2022-09-04T14:58:46;28.50;84.60
21238;DHT22;10777;50.828;3.264;2022-09-04T15:01:19;28.50;84.90
21238;DHT22;10777;50.828;3.264;2022-09-04T15:03:54;28.30;85.40
21238;DHT22;10777;50.828;3.264;2022-09-04T15:06:46;28.30;86.30
21238;DHT22;10777;50.828;3.264;2022-09-04T15:09:20;28.40;86.30
21238;DHT22;10777;50.828;3.264;2022-09-04T15:11:48;28.30;86.80
21238;DHT22;10777;50.828;3.264;2022-09-04T15:14:21;28.40;86.00
21238;DHT22;10777;50.828;3.264;2022-09-04T15:16:52;28.70;85.00
21238;DHT22;10777;50.828;3.264;2022-09-04T15:19:35;28.40;85.00
21238;DHT22;10777;50.828;3.264;2022-09-04T15:22:12;28.40;85.50
21238;DHT22;10777;50.828;3.264;2022-09-04T15:24:53;28.50;84.50
21238;DHT22;10777;50.828;3.264;2022-09-04T15:27:45;28.60;84.60
21238;DHT22;10777;50.828;3.264;2022-09-04T15:30:24;28.70;84.40
21238;DHT22;10777;50.828;3.264;2022-09-04T15:33:11;28.80;82.80
21238;DHT22;10777;50.828;3.264;2022-09-04T15:35:39;29.70;82.30
21238;DHT22;10777;50.828;3.264;2022-09-04T15:38:23;31.00;80.80
21238;DHT22;10777;50.828;3.264;2022-09-04T15:43:51;32.20;75.50
21238;DHT22;10777;50.828;3.264;2022-09-04T15:46:25;33.20;72.80
21238;DHT22;10777;50.828;3.264;2022-09-04T15:55:03;35.10;66.00
21238;DHT22;10777;50.828;3.264;2022-09-04T15:57:53;35.80;66.00
21238;DHT22;10777;50.828;3.264;2022-09-04T16:00:23;36.60;64.10
21238;DHT22;10777;50.828;3.264;2022-09-04T16:02:59;36.90;63.50
21238;DHT22;10777;50.828;3.264;2022-09-04T16:05:40;37.90;61.90
21238;DHT22;10777;50.828;3.264;2022-09-04T16:11:20;36.10;61.10
21238;DHT22;10777;50.828;3.264;2022-09-04T16:16:44;33.30;64.70
21238;DHT22;10777;50.828;3.264;2022-09-04T16:19:27;32.60;66.10
21238;DHT22;10777;50.828;3.264;2022-09-04T16:22:06;32.20;66.90
21238;DHT22;10777;50.828;3.264;2022-09-04T16:24:41;31.90;67.50
21238;DHT22;10777;50.828;3.264;2022-09-04T16:27:13;31.80;68.30
21238;DHT22;10777;50.828;3.264;2022-09-04T16:29:54;31.20;69.90
21238;DHT22;10777;50.828;3.264;2022-09-04T16:32:24;30.50;71.50
21238;DHT22;10777;50.828;3.264;2022-09-04T16:35:03;30.00;72.40
21238;DHT22;10777;50.828;3.264;2022-09-04T16:37:38;29.50;73.80
21238;DHT22;10777;50.828;3.264;2022-09-04T16:40:29;29.40;75.40
21238;DHT22;10777;50.828;3.264;2022-09-04T16:43:19;29.20;75.20
21238;DHT22;10777;50.828;3.264;2022-09-04T16:46:01;29.00;76.00
21238;DHT22;10777;50.828;3.264;2022-09-04T16:48:34;29.00;77.10
21238;DHT22;10777;50.828;3.264;2022-09-04T16:51:21;28.80;76.70
21238;DHT22;10777;50.828;3.264;2022-09-04T16:53:52;28.80;78.00
21238;DHT22;10777;50.828;3.264;2022-09-04T16:56:39;28.60;78.20
21238;DHT22;10777;50.828;3.264;2022-09-04T16:59:34;28.60;79.00
21238;DHT22;10777;50.828;3.264;2022-09-04T17:02:17;28.40;79.50
21238;DHT22;10777;50.828;3.264;2022-09-04T17:04:51;28.30;79.70
21238;DHT22;10777;50.828;3.264;2022-09-04T17:07:24;28.20;79.70
21238;DHT22;10777;50.828;3.264;2022-09-04T17:10:25;28.20;79.50
21238;DHT22;10777;50.828;3.264;2022-09-04T17:13:28;28.00;80.50
21238;DHT22;10777;50.828;3.264;2022-09-04T17:16:06;28.00;81.30
21238;DHT22;10777;50.828;3.264;2022-09-04T17:18:34;28.00;81.70
21238;DHT22;10777;50.828;3.264;2022-09-04T17:21:23;28.00;82.30
21238;DHT22;10777;50.828;3.264;2022-09-04T17:24:36;28.00;82.30
21238;DHT22;10777;50.828;3.264;2022-09-04T17:27:10;27.90;83.40
21238;DHT22;10777;50.828;3.264;2022-09-04T17:29:59;27.90;83.70
21238;DHT22;10777;50.828;3.264;2022-09-04T17:32:32;27.80;83.90
21238;DHT22;10777;50.828;3.264;2022-09-04T17:35:25;27.80;84.50
21238;DHT22;10777;50.828;3.264;2022-09-04T17:38:07;27.70;84.90
21238;DHT22;10777;50.828;3.264;2022-09-04T17:41:04;27.80;85.60
21238;DHT22;10777;50.828;3.264;2022-09-04T17:44:08;27.80;85.70
21238;DHT22;10777;50.828;3.264;2022-09-04T17:46:37;27.90;86.20
21238;DHT22;10777;50.828;3.264;2022-09-04T17:49:13;27.80;86.80
21238;DHT22;10777;50.828;3.264;2022-09-04T17:51:48;27.80;87.30
21238;DHT22;10777;50.828;3.264;2022-09-04T17:54:15;27.80;87.80
21238;DHT22;10777;50.828;3.264;2022-09-04T17:56:50;27.70;87.70
21238;DHT22;10777;50.828;3.264;2022-09-04T18:02:44;27.50;86.20
21238;DHT22;10777;50.828;3.264;2022-09-04T18:05:18;27.50;85.50
21238;DHT22;10777;50.828;3.264;2022-09-04T18:07:53;27.50;86.20
21238;DHT22;10777;50.828;3.264;2022-09-04T18:13:38;27.40;85.60
21238;DHT22;10777;50.828;3.264;2022-09-04T18:27:46;27.10;88.10
21238;DHT22;10777;50.828;3.264;2022-09-04T18:30:15;27.10;88.30
21238;DHT22;10777;50.828;3.264;2022-09-04T18:33:06;27.10;88.50
21238;DHT22;10777;50.828;3.264;2022-09-04T18:35:59;26.90;89.00
21238;DHT22;10777;50.828;3.264;2022-09-04T18:38:40;26.70;90.10
21238;DHT22;10777;50.828;3.264;2022-09-04T18:41:17;26.40;90.90
21238;DHT22;10777;50.828;3.264;2022-09-04T18:46:36;26.10;92.00
21238;DHT22;10777;50.828;3.264;2022-09-04T18:49:05;26.00;92.10
21238;DHT22;10777;50.828;3.264;2022-09-04T18:51:39;26.10;92.20
21238;DHT22;10777;50.828;3.264;2022-09-04T18:54:36;26.20;91.90
21238;DHT22;10777;50.828;3.264;2022-09-04T19:00:04;25.90;92.60
21238;DHT22;10777;50.828;3.264;2022-09-04T19:02:32;25.80;93.40
21238;DHT22;10777;50.828;3.264;2022-09-04T19:05:08;25.70;93.50
21238;DHT22;10777;50.828;3.264;2022-09-04T19:07:47;25.80;93.90
21238;DHT22;10777;50.828;3.264;2022-09-04T19:10:24;25.70;93.90
21238;DHT22;10777;50.828;3.264;2022-09-04T19:13:01;25.80;94.00
21238;DHT22;10777;50.828;3.264;2022-09-04T19:15:49;25.90;94.10
21238;DHT22;10777;50.828;3.264;2022-09-04T19:18:29;25.80;94.30
21238;DHT22;10777;50.828;3.264;2022-09-04T19:21:14;25.80;94.40
21238;DHT22;10777;50.828;3.264;2022-09-04T19:23:54;25.90;94.20
21238;DHT22;10777;50.828;3.264;2022-09-04T19:29:21;25.70;95.00
21238;DHT22;10777;50.828;3.264;2022-09-04T19:37:51;25.50;95.30
21238;DHT22;10777;50.828;3.264;2022-09-04T19:40:31;25.50;96.10
21238;DHT22;10777;50.828;3.264;2022-09-04T19:43:06;25.50;96.70
21238;DHT22;10777;50.828;3.264;2022-09-04T19:45:56;25.40;97.00
21238;DHT22;10777;50.828;3.264;2022-09-04T19:48:43;25.30;97.30
21238;DHT22;10777;50.828;3.264;2022-09-04T19:51:12;25.40;98.00
21238;DHT22;10777;50.828;3.264;2022-09-04T19:53:56;25.40;98.50
21238;DHT22;10777;50.828;3.264;2022-09-04T19:56:30;25.30;98.90
21238;DHT22;10777;50.828;3.264;2022-09-04T19:59:04;25.20;98.80
21238;DHT22;10777;50.828;3.264;2022-09-04T20:01:53;25.20;98.50
21238;DHT22;10777;50.828;3.264;2022-09-04T20:04:26;25.00;99.00
21238;DHT22;10777;50.828;3.264;2022-09-04T20:06:59;24.90;99.20
21238;DHT22;10777;50.828;3.264;2022-09-04T20:09:47;24.90;99.40
21238;DHT22;10777;50.828;3.264;2022-09-04T20:12:34;24.90;99.70
21238;DHT22;10777;50.828;3.264;2022-09-04T20:15:20;25.00;99.90
21238;DHT22;10777;50.828;3.264;2022-09-04T20:18:04;24.90;99.90
21238;DHT22;10777;50.828;3.264;2022-09-04T20:20:42;24.90;99.90
21238;DHT22;10777;50.828;3.264;2022-09-04T20:23:19;24.90;99.90
21238;DHT22;10777;50.828;3.264;2022-09-04T20:26:08;24.90;99.90
21238;DHT22;10777;50.828;3.264;2022-09-04T20:28:58;24.60;99.90
21238;DHT22;10777;50.828;3.264;2022-09-04T20:31:40;24.50;99.90
21238;DHT22;10777;50.828;3.264;2022-09-04T20:34:30;24.50;99.90
21238;DHT22;10777;50.828;3.264;2022-09-04T20:37:23;24.60;99.90
21238;DHT22;10777;50.828;3.264;2022-09-04T20:43:16;24.60;99.90
21238;DHT22;10777;50.828;3.264;2022-09-04T20:45:50;24.30;99.90
21238;DHT22;10777;50.828;3.264;2022-09-04T20:48:35;24.20;99.90
21238;DHT22;10777;50.828;3.264;2022-09-04T20:51:16;24.20;99.90
21238;DHT22;10777;50.828;3.264;2022-09-04T20:54:10;24.40;99.90
21238;DHT22;10777;50.828;3.264;2022-09-04T20:57:08;24.30;99.90
21238;DHT22;10777;50.828;3.264;2022-09-04T20:59:52;24.30;99.90
21238;DHT22;10777;50.828;3.264;2022-09-04T21:02:44;24.30;99.90
21238;DHT22;10777;50.828;3.264;2022-09-04T21:08:46;24.20;99.90
21238;DHT22;10777;50.828;3.264;2022-09-04T21:11:16;24.10;99.90
21238;DHT22;10777;50.828;3.264;2022-09-04T21:13:49;24.00;99.90
21238;DHT22;10777;50.828;3.264;2022-09-04T21:19:33;24.10;99.90
21238;DHT22;10777;50.828;3.264;2022-09-04T21:25:22;24.10;99.90
21238;DHT22;10777;50.828;3.264;2022-09-04T21:28:26;24.00;99.90
21238;DHT22;10777;50.828;3.264;2022-09-04T21:31:25;24.10;99.90
21238;DHT22;10777;50.828;3.264;2022-09-04T21:34:10;24.00;99.90
21238;DHT22;10777;50.828;3.264;2022-09-04T21:36:47;24.10;99.90
21238;DHT22;10777;50.828;3.264;2022-09-04T21:39:45;24.00;99.90
21238;DHT22;10777;50.828;3.264;2022-09-04T21:42:43;24.10;99.90
21238;DHT22;10777;50.828;3.264;2022-09-04T21:45:20;24.00;99.90
21238;DHT22;10777;50.828;3.264;2022-09-04T21:51:16;24.00;99.90
21238;DHT22;10777;50.828;3.264;2022-09-04T21:54:29;24.00;99.90
21238;DHT22;10777;50.828;3.264;2022-09-04T22:06:10;23.70;99.90
21238;DHT22;10777;50.828;3.264;2022-09-04T22:08:48;23.60;99.90
21238;DHT22;10777;50.828;3.264;2022-09-04T22:11:56;23.70;99.90
21238;DHT22;10777;50.828;3.264;2022-09-04T22:14:26;23.70;99.90
21238;DHT22;10777;50.828;3.264;2022-09-04T22:20:17;23.50;99.90
21238;DHT22;10777;50.828;3.264;2022-09-04T22:26:16;23.40;99.90
21238;DHT22;10777;50.828;3.264;2022-09-04T22:29:00;23.40;99.90
21238;DHT22;10777;50.828;3.264;2022-09-04T22:38:08;23.40;99.90
21238;DHT22;10777;50.828;3.264;2022-09-04T22:40:51;23.30;99.90
21238;DHT22;10777;50.828;3.264;2022-09-04T22:43:21;23.60;99.90
21238;DHT22;10777;50.828;3.264;2022-09-04T22:46:03;23.30;99.90
21238;DHT22;10777;50.828;3.264;2022-09-04T22:52:04;23.00;99.90
21238;DHT22;10777;50.828;3.264;2022-09-04T22:55:05;23.10;99.90
21238;DHT22;10777;50.828;3.264;2022-09-04T22:57:59;23.10;99.90
21238;DHT22;10777;50.828;3.264;2022-09-04T23:00:33;23.20;99.90
21238;DHT22;10777;50.828;3.264;2022-09-04T23:03:33;23.20;99.90
21238;DHT22;10777;50.828;3.264;2022-09-04T23:15:30;23.00;99.90
21238;DHT22;10777;50.828;3.264;2022-09-04T23:24:02;23.30;99.90